createdAt,value
2022-11-09T00:01:40.905Z,9.50
2022-11-09T00:04:10.484Z,9.00
2022-11-09T00:06:39.317Z,8.50
2022-11-09T00:09:10.867Z,10.30
2022-11-09T00:11:39.684Z,10.00
2022-11-09T00:14:13.502Z,9.20
2022-11-09T00:16:42.251Z,9.50
2022-11-09T00:19:11.003Z,9.90
2022-11-09T00:21:40.053Z,10.50
2022-11-09T00:24:09.246Z,9.50
2022-11-09T00:26:37.966Z,9.40
2022-11-09T00:29:06.844Z,9.70
2022-11-09T00:31:36.136Z,10.40
2022-11-09T00:34:04.947Z,9.60
2022-11-09T00:36:33.739Z,9.30
2022-11-09T00:39:02.503Z,9.20
2022-11-09T00:41:31.525Z,10.10
2022-11-09T00:44:00.352Z,9.40
2022-11-09T00:46:29.401Z,9.10
2022-11-09T00:48:58.328Z,10.60
2022-11-09T00:51:27.086Z,10.30
2022-11-09T00:53:57.386Z,10.40
2022-11-09T00:56:26.179Z,9.80
2022-11-09T00:58:58.482Z,10.80
2022-11-09T01:01:27.320Z,10.10
2022-11-09T01:03:56.255Z,11.30
2022-11-09T01:06:25.672Z,9.80
2022-11-09T01:08:54.832Z,10.00
2022-11-09T01:11:23.855Z,10.60
2022-11-09T01:13:52.762Z,10.80
2022-11-09T01:16:22.497Z,11.10
2022-11-09T01:18:55.114Z,10.80
2022-11-09T01:21:24.234Z,10.00
2022-11-09T01:23:53.092Z,11.70
2022-11-09T01:26:21.918Z,10.80
2022-11-09T01:28:50.685Z,10.20
2022-11-09T01:31:20.573Z,9.70
2022-11-09T01:33:49.410Z,9.90
2022-11-09T01:36:19.534Z,10.50
2022-11-09T01:38:48.829Z,10.70
2022-11-09T01:41:19.911Z,11.00
2022-11-09T01:44:07.629Z,11.90
2022-11-09T01:46:39.438Z,10.50
2022-11-09T01:49:15.470Z,10.40
2022-11-09T01:51:47.860Z,10.10
2022-11-09T01:54:22.731Z,10.80
2022-11-09T01:56:53.282Z,11.60
2022-11-09T01:59:25.070Z,9.90
2022-11-09T02:01:53.994Z,11.50
2022-11-09T02:04:24.899Z,12.70
2022-11-09T02:06:56.052Z,12.50
2022-11-09T02:09:30.144Z,10.90
2022-11-09T02:11:59.606Z,9.80
2022-11-09T02:14:29.625Z,10.90
2022-11-09T02:16:58.470Z,11.50
2022-11-09T02:19:27.393Z,10.80
2022-11-09T02:21:56.826Z,11.20
2022-11-09T02:24:25.791Z,13.20
2022-11-09T02:26:54.807Z,12.10
2022-11-09T02:29:28.538Z,13.10
2022-11-09T02:31:59.438Z,11.30
2022-11-09T02:34:28.389Z,11.00
2022-11-09T02:36:57.136Z,11.30
2022-11-09T02:39:27.216Z,11.30
2022-11-09T02:42:02.689Z,11.10
2022-11-09T02:44:34.111Z,11.30
2022-11-09T02:47:02.986Z,12.60
2022-11-09T02:49:31.949Z,12.60
2022-11-09T02:52:00.697Z,12.70
2022-11-09T02:54:29.476Z,12.60
2022-11-09T02:56:58.343Z,11.80
2022-11-09T02:59:27.342Z,11.30
2022-11-09T03:01:56.196Z,12.50
2022-11-09T03:04:25.192Z,12.10
2022-11-09T03:06:54.007Z,11.90
2022-11-09T03:09:22.820Z,12.40
2022-11-09T03:11:52.071Z,11.80
2022-11-09T03:14:20.903Z,12.10
2022-11-09T03:16:50.951Z,12.30
2022-11-09T03:19:20.167Z,11.20
2022-11-09T03:21:48.992Z,11.90
2022-11-09T03:24:17.735Z,11.70
2022-11-09T03:26:46.502Z,12.60
2022-11-09T03:29:15.242Z,13.20
2022-11-09T03:31:44.044Z,12.80
2022-11-09T03:34:12.809Z,13.00
2022-11-09T03:36:41.592Z,12.70
2022-11-09T03:39:10.391Z,11.30
2022-11-09T03:41:39.488Z,12.40
2022-11-09T03:44:08.658Z,12.50
2022-11-09T03:46:37.446Z,12.90
2022-11-09T03:49:06.259Z,12.80
2022-11-09T03:51:35.030Z,13.80
2022-11-09T03:54:03.877Z,13.60
2022-11-09T03:56:32.625Z,12.50
2022-11-09T03:59:01.403Z,11.30
2022-11-09T04:01:30.251Z,11.80
2022-11-09T04:03:59.095Z,12.40
2022-11-09T04:06:27.973Z,12.20
2022-11-09T04:08:56.808Z,13.00
2022-11-09T04:11:25.557Z,13.90
2022-11-09T04:13:54.359Z,13.20
2022-11-09T04:16:23.151Z,12.30
2022-11-09T04:18:51.971Z,12.00
2022-11-09T04:21:23.914Z,11.80
2022-11-09T04:23:52.946Z,13.00
2022-11-09T04:26:21.766Z,12.50
2022-11-09T04:28:50.507Z,14.00
2022-11-09T04:31:19.263Z,14.00
2022-11-09T04:33:51.433Z,14.00
2022-11-09T04:36:20.203Z,12.60
2022-11-09T04:38:49.163Z,11.40
2022-11-09T04:41:17.908Z,11.90
2022-11-09T04:43:46.669Z,12.40
2022-11-09T04:46:15.490Z,13.40
2022-11-09T04:48:44.607Z,13.30
2022-11-09T04:51:13.856Z,13.60
2022-11-09T04:53:42.693Z,14.60
2022-11-09T04:56:11.750Z,12.40
2022-11-09T04:58:40.909Z,11.40
2022-11-09T05:01:13.640Z,12.70
2022-11-09T05:03:42.538Z,13.10
2022-11-09T05:06:30.336Z,12.80
2022-11-09T05:09:04.015Z,14.30
2022-11-09T05:11:33.397Z,12.90
2022-11-09T05:14:02.772Z,13.70
2022-11-09T05:16:31.850Z,12.10
2022-11-09T05:19:00.707Z,11.80
2022-11-09T05:21:29.587Z,12.60
2022-11-09T05:24:01.663Z,13.00
2022-11-09T05:26:32.094Z,12.20
2022-11-09T05:29:02.353Z,13.60
2022-11-09T05:31:31.487Z,14.10
2022-11-09T05:34:00.826Z,13.40
2022-11-09T05:36:30.742Z,12.70
2022-11-09T05:39:00.150Z,12.10
2022-11-09T05:41:29.475Z,12.40
2022-11-09T05:43:58.296Z,13.20
2022-11-09T05:46:27.140Z,12.00
2022-11-09T05:48:55.930Z,12.60
2022-11-09T05:51:24.776Z,13.80
2022-11-09T05:53:56.594Z,13.70
2022-11-09T05:56:25.378Z,12.80
2022-11-09T05:58:54.138Z,12.20
2022-11-09T06:01:22.858Z,13.30
2022-11-09T06:03:53.565Z,13.40
2022-11-09T06:06:22.355Z,12.70
2022-11-09T06:08:51.237Z,13.90
2022-11-09T06:11:23.996Z,13.90
2022-11-09T06:13:53.768Z,14.30
2022-11-09T06:16:22.657Z,13.10
2022-11-09T06:18:51.627Z,13.60
2022-11-09T06:21:20.407Z,15.10
2022-11-09T06:23:49.451Z,15.00
2022-11-09T06:26:18.316Z,15.40
2022-11-09T06:28:47.108Z,16.10
2022-11-09T06:31:17.878Z,16.10
2022-11-09T06:33:46.746Z,16.70
2022-11-09T06:36:16.245Z,14.30
2022-11-09T06:38:48.214Z,14.50
2022-11-09T06:41:17.317Z,14.30
2022-11-09T06:43:46.095Z,15.30
2022-11-09T06:46:18.094Z,14.60
2022-11-09T06:48:50.659Z,14.80
2022-11-09T06:51:23.439Z,16.10
2022-11-09T06:53:52.355Z,15.30
2022-11-09T06:56:21.204Z,13.10
2022-11-09T06:58:49.983Z,13.40
2022-11-09T07:01:20.057Z,14.50
2022-11-09T07:03:48.903Z,14.70
2022-11-09T07:06:18.224Z,13.80
2022-11-09T07:08:50.036Z,13.40
2022-11-09T07:11:19.793Z,13.30
2022-11-09T07:13:53.436Z,14.30
2022-11-09T07:16:25.424Z,13.60
2022-11-09T07:18:54.237Z,13.80
2022-11-09T07:21:23.049Z,15.50
2022-11-09T07:23:51.911Z,15.10
2022-11-09T07:26:20.685Z,13.70
2022-11-09T07:28:49.435Z,13.10
2022-11-09T07:31:18.238Z,12.90
2022-11-09T07:33:47.066Z,12.80
2022-11-09T07:36:21.100Z,12.60
2022-11-09T07:38:50.768Z,14.50
2022-11-09T07:41:19.757Z,13.90
2022-11-09T07:43:48.593Z,13.70
2022-11-09T07:46:17.338Z,12.80
2022-11-09T07:48:46.147Z,12.50
2022-11-09T07:51:14.939Z,13.40
2022-11-09T07:53:44.086Z,13.40
2022-11-09T07:56:12.890Z,14.30
2022-11-09T07:58:41.817Z,14.40
2022-11-09T08:01:10.978Z,14.80
2022-11-09T08:03:39.793Z,13.20
2022-11-09T08:06:08.600Z,14.00
2022-11-09T08:08:37.409Z,13.10
2022-11-09T08:11:06.270Z,12.60
2022-11-09T08:13:35.067Z,13.50
2022-11-09T08:16:04.177Z,13.70
2022-11-09T08:18:32.946Z,14.30
2022-11-09T08:21:03.374Z,14.00
2022-11-09T08:23:32.171Z,14.60
2022-11-09T08:26:04.785Z,13.70
2022-11-09T08:28:34.146Z,14.10
2022-11-09T08:31:06.130Z,13.80
2022-11-09T08:33:36.830Z,14.80
2022-11-09T08:36:09.422Z,12.30
2022-11-09T08:38:38.416Z,12.80
2022-11-09T08:41:12.962Z,13.00
2022-11-09T08:43:42.352Z,12.50
2022-11-09T08:46:11.156Z,13.40
2022-11-09T08:48:39.910Z,13.80
2022-11-09T08:51:08.825Z,13.90
2022-11-09T08:53:37.563Z,13.90
2022-11-09T08:56:08.002Z,13.20
2022-11-09T08:58:36.826Z,13.40
2022-11-09T09:01:15.381Z,13.70
2022-11-09T09:03:46.771Z,14.00
2022-11-09T09:06:15.702Z,13.60
2022-11-09T09:08:44.445Z,13.10
2022-11-09T09:11:13.436Z,13.00
2022-11-09T09:13:43.731Z,13.00
2022-11-09T09:16:13.567Z,12.90
2022-11-09T09:18:42.635Z,13.60
2022-11-09T09:21:11.503Z,12.90
2022-11-09T09:23:40.318Z,13.20
2022-11-09T09:26:09.134Z,12.50
2022-11-09T09:28:39.033Z,12.00
2022-11-09T09:31:08.073Z,13.50
2022-11-09T09:33:37.007Z,13.20
2022-11-09T09:36:05.957Z,13.30
2022-11-09T09:38:34.719Z,13.50
2022-11-09T09:41:04.732Z,13.20
2022-11-09T09:43:43.270Z,11.70
2022-11-09T09:46:20.163Z,12.00
2022-11-09T09:48:53.562Z,11.40
2022-11-09T09:51:40.655Z,11.30
2022-11-09T09:54:18.132Z,11.00
2022-11-09T09:56:47.457Z,10.70
2022-11-09T09:59:35.163Z,11.00
2022-11-09T10:02:10.475Z,10.50
2022-11-09T10:04:41.608Z,9.90
2022-11-09T10:07:14.461Z,10.40
2022-11-09T10:09:53.504Z,10.30
2022-11-09T10:12:22.255Z,10.30
2022-11-09T10:14:50.983Z,10.00
2022-11-09T10:17:25.873Z,10.20
2022-11-09T10:20:30.237Z,10.60
2022-11-09T10:23:01.920Z,9.80
2022-11-09T10:25:57.660Z,10.00
2022-11-09T10:28:23.988Z,10.30
2022-11-09T10:30:52.845Z,10.20
2022-11-09T10:33:21.807Z,10.40
2022-11-09T10:35:53.803Z,10.50
2022-11-09T10:38:26.139Z,10.10
2022-11-09T10:41:02.709Z,11.20
2022-11-09T10:43:31.580Z,11.00
2022-11-09T10:46:07.994Z,10.70
2022-11-09T10:48:37.928Z,11.40
2022-11-09T10:51:26.634Z,11.70
2022-11-09T10:54:15.751Z,10.60
2022-11-09T10:57:05.105Z,10.60
2022-11-09T10:59:51.328Z,10.90
2022-11-09T11:02:26.263Z,10.70
2022-11-09T11:05:07.089Z,10.90
2022-11-09T11:07:36.423Z,10.90
2022-11-09T11:10:11.224Z,10.60
2022-11-09T11:12:40.010Z,10.20
2022-11-09T11:15:27.590Z,10.40
2022-11-09T11:18:03.885Z,10.30
2022-11-09T11:20:36.803Z,11.00
2022-11-09T11:23:13.226Z,11.00
2022-11-09T11:26:04.736Z,10.40
2022-11-09T11:28:40.753Z,10.50
2022-11-09T11:31:17.015Z,10.80
2022-11-09T11:33:46.119Z,10.90
2022-11-09T11:36:35.157Z,11.10
2022-11-09T11:39:29.685Z,10.50
2022-11-09T11:42:17.455Z,10.50
2022-11-09T11:45:07.375Z,9.60
2022-11-09T11:47:56.525Z,9.70
2022-11-09T11:50:43.435Z,9.80
2022-11-09T11:53:24.576Z,10.00
2022-11-09T11:55:56.527Z,10.20
2022-11-09T11:58:28.247Z,10.30
2022-11-09T12:01:15.763Z,10.20
2022-11-09T12:03:52.294Z,10.20
2022-11-09T12:06:27.835Z,10.60
2022-11-09T12:09:11.941Z,10.40
2022-11-09T12:11:40.702Z,10.40
2022-11-09T12:14:15.549Z,9.60
2022-11-09T12:16:47.150Z,9.90
2022-11-09T12:19:36.004Z,10.00
2022-11-09T12:22:09.410Z,10.40
2022-11-09T12:24:38.215Z,10.10
2022-11-09T12:27:30.918Z,10.00
2022-11-09T12:30:24.180Z,10.30
2022-11-09T12:33:01.823Z,9.30
2022-11-09T12:35:34.539Z,9.60
2022-11-09T12:38:23.921Z,9.90
2022-11-09T12:41:25.381Z,9.80
2022-11-09T12:44:00.709Z,9.60
2022-11-09T12:46:35.409Z,10.10
2022-11-09T12:49:05.500Z,9.60
2022-11-09T12:51:34.758Z,9.90
2022-11-09T12:54:10.111Z,9.50
2022-11-09T12:56:44.577Z,9.50
2022-11-09T12:59:20.421Z,9.60
2022-11-09T13:01:56.192Z,10.00
2022-11-09T13:04:25.747Z,10.10
2022-11-09T13:07:03.708Z,9.60
2022-11-09T13:09:44.324Z,9.30
2022-11-09T13:12:18.970Z,9.40
2022-11-09T13:14:48.320Z,9.50
2022-11-09T13:17:26.107Z,9.90
2022-11-09T13:19:55.921Z,9.50
2022-11-09T13:22:27.678Z,10.10
2022-11-09T13:25:00.582Z,10.20
2022-11-09T13:27:38.325Z,9.80
2022-11-09T13:30:25.245Z,9.40
2022-11-09T13:33:06.329Z,9.90
2022-11-09T13:35:41.219Z,9.60
2022-11-09T13:38:29.462Z,9.40
2022-11-09T13:41:01.937Z,10.00
2022-11-09T13:43:36.239Z,10.70
2022-11-09T13:46:22.101Z,11.30
2022-11-09T13:48:52.919Z,10.90
2022-11-09T13:51:38.945Z,10.80
2022-11-09T13:54:26.644Z,11.60
2022-11-09T13:56:56.409Z,13.20
2022-11-09T13:59:29.473Z,12.70
2022-11-09T14:01:59.479Z,11.90
2022-11-09T14:04:29.683Z,10.90
2022-11-09T14:07:05.632Z,10.40
2022-11-09T14:09:48.877Z,9.50
2022-11-09T14:12:32.506Z,10.00
2022-11-09T14:15:07.530Z,10.90
2022-11-09T14:17:36.290Z,11.70
2022-11-09T14:20:11.725Z,11.60
2022-11-09T14:22:41.109Z,11.60
2022-11-09T14:25:14.442Z,12.60
2022-11-09T14:27:47.386Z,12.30
2022-11-09T14:32:48.419Z,12.10
2022-11-09T14:35:20.149Z,10.60
2022-11-09T14:37:50.022Z,9.90
2022-11-09T14:40:21.606Z,9.60
2022-11-09T14:43:10.655Z,10.10
2022-11-09T14:45:47.224Z,11.30
2022-11-09T14:48:18.660Z,11.90
2022-11-09T14:50:49.025Z,12.90
2022-11-09T14:53:24.828Z,13.00
2022-11-09T14:55:55.851Z,11.90
2022-11-09T14:58:25.579Z,11.20
2022-11-09T15:01:07.093Z,9.60
2022-11-09T15:03:39.163Z,10.30
2022-11-09T15:06:10.061Z,10.40
2022-11-09T15:08:45.215Z,11.90
2022-11-09T15:11:14.158Z,12.20
2022-11-09T15:13:43.099Z,13.20
2022-11-09T15:16:20.035Z,12.80
2022-11-09T15:18:49.703Z,12.80
2022-11-09T15:21:24.988Z,11.60
2022-11-09T15:24:05.424Z,10.30
2022-11-09T15:26:38.756Z,10.40
2022-11-09T15:29:26.688Z,10.90
2022-11-09T15:32:07.181Z,11.60
2022-11-09T15:34:40.948Z,13.00
2022-11-09T15:37:28.739Z,12.70
2022-11-09T15:39:58.332Z,13.70
2022-11-09T15:42:27.424Z,12.40
2022-11-09T15:44:57.793Z,10.80
2022-11-09T15:47:31.759Z,11.20
2022-11-09T15:50:01.836Z,11.20
2022-11-09T15:52:31.039Z,12.00
2022-11-09T15:54:59.893Z,13.00
2022-11-09T15:57:28.756Z,14.60
2022-11-09T15:59:57.782Z,14.30
2022-11-09T16:02:27.167Z,15.30
2022-11-09T16:04:56.929Z,13.10
2022-11-09T16:07:26.007Z,12.30
2022-11-09T16:09:54.936Z,12.20
2022-11-09T16:12:23.755Z,13.30
2022-11-09T16:14:52.661Z,12.20
2022-11-09T16:17:21.612Z,14.10
2022-11-09T16:19:51.987Z,13.50
2022-11-09T16:22:20.774Z,14.40
2022-11-09T16:24:49.541Z,15.80
2022-11-09T16:27:47.818Z,13.70
2022-11-09T16:30:09.409Z,12.60
2022-11-09T16:32:38.231Z,13.70
2022-11-09T16:37:58.173Z,14.50
2022-11-09T16:40:29.076Z,15.60
2022-11-09T16:42:59.310Z,16.80
2022-11-09T16:45:33.136Z,14.50
2022-11-09T16:48:03.581Z,14.10
2022-11-09T16:50:33.014Z,12.80
2022-11-09T16:53:01.816Z,13.30
2022-11-09T16:55:30.759Z,13.60
2022-11-09T16:57:59.851Z,15.00
2022-11-09T17:00:42.738Z,16.20
2022-11-09T17:03:17.677Z,15.90
2022-11-09T17:05:46.567Z,17.80
2022-11-09T17:08:15.444Z,15.60
2022-11-09T17:10:46.137Z,15.50
2022-11-09T17:13:14.968Z,13.90
2022-11-09T17:15:44.838Z,14.10
2022-11-09T17:18:14.174Z,15.40
2022-11-09T17:20:48.248Z,16.50
2022-11-09T17:23:18.913Z,17.60
2022-11-09T17:25:54.468Z,17.50
2022-11-09T17:28:23.539Z,16.70
2022-11-09T17:30:52.677Z,15.70
2022-11-09T17:33:21.777Z,14.90
2022-11-09T17:36:01.429Z,14.30
2022-11-09T17:38:30.362Z,14.50
2022-11-09T17:41:03.553Z,16.50
2022-11-09T17:43:33.061Z,16.00
2022-11-09T17:46:05.464Z,16.60
2022-11-09T17:48:35.346Z,14.10
2022-11-09T17:51:08.154Z,13.60
2022-11-09T17:53:37.486Z,13.20
2022-11-09T17:56:08.462Z,14.00
2022-11-09T17:58:42.137Z,14.50
2022-11-09T18:01:12.209Z,14.70
2022-11-09T18:03:41.195Z,14.80
2022-11-09T18:06:15.006Z,14.60
2022-11-09T18:08:44.568Z,13.80
2022-11-09T18:11:14.313Z,12.90
2022-11-09T18:13:43.626Z,13.60
2022-11-09T18:16:17.469Z,12.90
2022-11-09T18:18:46.822Z,14.00
2022-11-09T18:21:16.871Z,15.10
2022-11-09T18:23:50.672Z,15.80
2022-11-09T18:26:19.700Z,13.90
2022-11-09T18:28:52.326Z,15.70
2022-11-09T18:31:24.617Z,17.60
2022-11-09T18:33:53.728Z,24.80
2022-11-09T18:36:23.528Z,23.60
2022-11-09T18:38:55.219Z,18.00
2022-11-09T18:41:24.786Z,16.60
2022-11-09T18:43:54.221Z,14.80
2022-11-09T18:46:23.174Z,16.50
2022-11-09T18:48:52.725Z,14.10
2022-11-09T18:51:21.982Z,15.20
2022-11-09T18:53:50.815Z,13.30
2022-11-09T18:56:24.661Z,12.30
2022-11-09T18:58:54.790Z,13.10
2022-11-09T19:01:25.045Z,16.10
2022-11-09T19:03:58.965Z,14.30
2022-11-09T19:06:28.657Z,15.60
2022-11-09T19:09:16.288Z,20.40
2022-11-09T19:11:45.053Z,14.90
2022-11-09T19:14:14.079Z,15.90
2022-11-09T19:16:42.873Z,14.90
2022-11-09T19:19:13.123Z,15.00
2022-11-09T19:21:41.884Z,15.60
2022-11-09T19:24:14.961Z,16.30
2022-11-09T19:26:43.745Z,15.30
2022-11-09T19:29:13.786Z,14.70
2022-11-09T19:31:43.397Z,14.30
2022-11-09T19:34:16.578Z,14.10
2022-11-09T19:36:48.914Z,13.70
2022-11-09T19:39:17.789Z,12.90
2022-11-09T19:41:46.870Z,13.20
2022-11-09T19:44:18.027Z,15.90
2022-11-09T19:46:47.061Z,14.10
2022-11-09T19:49:15.829Z,13.40
2022-11-09T19:51:44.621Z,15.20
2022-11-09T19:54:13.750Z,14.30
2022-11-09T19:56:42.553Z,13.90
2022-11-09T19:59:13.305Z,14.00
2022-11-09T20:01:42.665Z,13.10
2022-11-09T20:04:11.747Z,12.90
2022-11-09T20:06:40.976Z,15.20
2022-11-09T20:09:09.926Z,16.20
2022-11-09T20:11:57.356Z,15.80
2022-11-09T20:14:26.128Z,15.20
2022-11-09T20:16:55.536Z,14.70
2022-11-09T20:19:25.494Z,15.00
2022-11-09T20:21:54.461Z,14.30
2022-11-09T20:24:23.350Z,14.00
2022-11-09T20:26:52.241Z,16.00
2022-11-09T20:29:21.350Z,15.40
2022-11-09T20:31:50.129Z,16.20
2022-11-09T20:34:18.854Z,16.10
2022-11-09T20:36:47.658Z,14.80
2022-11-09T20:39:16.555Z,16.50
2022-11-09T20:41:45.366Z,16.10
2022-11-09T20:44:14.140Z,15.50
2022-11-09T20:46:42.972Z,14.40
2022-11-09T20:49:11.897Z,15.50
2022-11-09T20:51:40.847Z,17.70
2022-11-09T20:54:09.636Z,17.20
2022-11-09T20:56:38.563Z,17.00
2022-11-09T20:59:07.901Z,16.00
2022-11-09T21:01:37.100Z,15.30
2022-11-09T21:04:07.144Z,16.70
2022-11-09T21:06:38.536Z,17.00
2022-11-09T21:09:07.920Z,15.10
2022-11-09T21:11:37.101Z,14.70
2022-11-09T21:14:06.201Z,15.70
2022-11-09T21:16:35.437Z,16.90
2022-11-09T21:19:05.213Z,15.50
2022-11-09T21:21:39.054Z,15.50
2022-11-09T21:24:29.856Z,16.10
2022-11-09T21:27:17.917Z,15.40
2022-11-09T21:29:50.359Z,15.60
2022-11-09T21:32:20.808Z,15.10
2022-11-09T21:34:50.825Z,16.00
2022-11-09T21:37:19.653Z,17.00
2022-11-09T21:39:48.462Z,16.60
2022-11-09T21:42:17.559Z,16.20
2022-11-09T21:44:46.379Z,16.10
2022-11-09T21:47:15.174Z,15.30
2022-11-09T21:49:44.031Z,15.90
2022-11-09T21:52:12.835Z,15.60
2022-11-09T21:54:41.705Z,16.20
2022-11-09T21:57:10.565Z,16.70
2022-11-09T21:59:39.448Z,16.00
2022-11-09T22:02:09.342Z,15.80
2022-11-09T22:04:38.134Z,15.50
2022-11-09T22:07:07.016Z,16.30
2022-11-09T22:10:05.973Z,16.40
2022-11-09T22:12:44.251Z,15.30
2022-11-09T22:15:48.617Z,15.80
2022-11-09T22:18:36.178Z,16.60
2022-11-09T22:21:05.014Z,17.10
2022-11-09T22:23:33.859Z,17.30
2022-11-09T22:26:02.733Z,16.10
2022-11-09T22:28:32.081Z,15.40
2022-11-09T22:31:01.481Z,15.70
2022-11-09T22:33:31.353Z,16.30
2022-11-09T22:36:01.497Z,15.60
2022-11-09T22:38:33.218Z,17.00
2022-11-09T22:41:02.915Z,15.10
2022-11-09T22:43:35.305Z,16.00
2022-11-09T22:46:08.727Z,16.00
2022-11-09T22:48:37.927Z,15.60
2022-11-09T22:51:07.093Z,15.60
2022-11-09T22:53:35.925Z,15.60
2022-11-09T22:56:04.910Z,15.90
2022-11-09T22:58:33.728Z,15.50
2022-11-09T23:01:11.687Z,16.50
2022-11-09T23:03:40.870Z,16.80
2022-11-09T23:06:14.173Z,16.30
2022-11-09T23:08:42.998Z,15.30
2022-11-09T23:11:13.880Z,14.60
2022-11-09T23:13:43.790Z,13.90
2022-11-09T23:16:12.580Z,15.20
2022-11-09T23:18:56.526Z,14.60
2022-11-09T23:21:27.187Z,15.20
2022-11-09T23:24:01.390Z,16.70
2022-11-09T23:26:30.784Z,16.30
2022-11-09T23:29:00.442Z,14.80
2022-11-09T23:31:29.266Z,14.70
2022-11-09T23:33:58.201Z,14.60
2022-11-09T23:36:27.037Z,14.80
2022-11-09T23:38:55.800Z,14.60
2022-11-09T23:41:24.596Z,15.50
2022-11-09T23:43:56.554Z,16.10
2022-11-09T23:46:25.322Z,15.40
2022-11-09T23:48:54.081Z,15.00
2022-11-09T23:51:23.688Z,14.80
2022-11-09T23:53:52.575Z,15.70
2022-11-09T23:56:21.728Z,16.60
2022-11-09T23:58:51.842Z,14.30
